createdAt,value
2022-10-03T00:02:24.309Z,79.55
2022-10-03T00:04:58.826Z,79.10
2022-10-03T00:07:46.356Z,79.17
2022-10-03T00:10:12.581Z,79.00
2022-10-03T00:12:42.706Z,78.79
2022-10-03T00:15:14.100Z,79.88
2022-10-03T00:17:52.848Z,78.58
2022-10-03T00:20:19.325Z,78.85
2022-10-03T00:23:05.985Z,79.53
2022-10-03T00:25:51.029Z,79.57
2022-10-03T00:28:37.506Z,79.79
2022-10-03T00:31:17.905Z,79.98
2022-10-03T00:34:07.619Z,79.95
2022-10-03T00:36:42.641Z,80.67
2022-10-03T00:39:31.572Z,79.72
2022-10-03T00:42:16.689Z,80.20
2022-10-03T00:45:02.851Z,79.42
2022-10-03T00:47:41.117Z,79.46
2022-10-03T00:50:15.648Z,79.83
2022-10-03T00:53:00.243Z,80.41
2022-10-03T00:55:40.993Z,79.70
2022-10-03T00:58:16.522Z,79.95
2022-10-03T01:00:46.418Z,79.65
2022-10-03T01:03:19.363Z,79.95
2022-10-03T01:06:04.456Z,78.73
2022-10-03T01:08:30.906Z,79.37
2022-10-03T01:11:04.130Z,79.23
2022-10-03T01:13:48.993Z,79.13
2022-10-03T01:16:18.335Z,78.29
2022-10-03T01:18:44.597Z,78.94
2022-10-03T01:21:19.596Z,78.48
2022-10-03T01:23:57.673Z,78.32
2022-10-03T01:26:53.317Z,78.21
2022-10-03T01:29:44.763Z,77.64
2022-10-03T01:32:16.833Z,76.70
2022-10-03T01:35:00.132Z,77.76
2022-10-03T01:37:32.997Z,77.94
2022-10-03T01:40:18.177Z,77.34
2022-10-03T01:42:54.968Z,76.59
2022-10-03T01:45:37.501Z,77.33
2022-10-03T01:48:12.715Z,77.38
2022-10-03T01:50:50.996Z,76.87
2022-10-03T01:53:33.182Z,76.86
2022-10-03T01:56:04.486Z,76.97
2022-10-03T01:58:34.475Z,77.07
2022-10-03T02:01:21.668Z,77.11
2022-10-03T02:04:04.323Z,77.26
2022-10-03T02:06:33.400Z,77.28
2022-10-03T02:09:27.441Z,76.94
2022-10-03T02:12:13.666Z,77.19
2022-10-03T02:14:51.702Z,77.12
2022-10-03T02:17:26.010Z,77.30
2022-10-03T02:20:09.297Z,76.93
2022-10-03T02:22:42.558Z,77.59
2022-10-03T02:25:14.584Z,77.23
2022-10-03T02:27:52.295Z,77.38
2022-10-03T02:30:18.818Z,77.75
2022-10-03T02:33:16.620Z,77.71
2022-10-03T02:35:45.637Z,77.13
2022-10-03T02:38:21.001Z,77.32
2022-10-03T02:41:07.013Z,77.84
2022-10-03T02:43:51.919Z,78.34
2022-10-03T02:46:36.854Z,77.90
2022-10-03T02:49:35.168Z,78.66
2022-10-03T02:52:05.465Z,78.92
2022-10-03T02:54:48.136Z,78.22
2022-10-03T02:57:45.267Z,78.33
2022-10-03T03:00:33.748Z,78.44
2022-10-03T03:03:03.041Z,78.16
2022-10-03T03:05:44.911Z,78.52
2022-10-03T03:08:33.621Z,78.58
2022-10-03T03:11:18.624Z,78.30
2022-10-03T03:13:54.472Z,78.36
2022-10-03T03:16:39.460Z,77.65
2022-10-03T03:19:24.525Z,77.74
2022-10-03T03:22:02.507Z,77.25
2022-10-03T03:24:41.670Z,77.58
2022-10-03T03:27:28.259Z,76.67
2022-10-03T03:30:06.714Z,76.49
2022-10-03T03:32:37.336Z,75.80
2022-10-03T03:35:12.959Z,77.00
2022-10-03T03:37:48.591Z,76.24
2022-10-03T03:40:29.612Z,76.35
2022-10-03T03:42:55.841Z,75.99
2022-10-03T03:45:33.633Z,76.08
2022-10-03T03:48:14.492Z,76.53
2022-10-03T03:50:55.811Z,76.75
2022-10-03T03:53:29.960Z,76.71
2022-10-03T03:56:07.203Z,75.91
2022-10-03T03:58:41.828Z,76.40
2022-10-03T04:01:31.572Z,76.53
2022-10-03T04:04:07.094Z,76.93
2022-10-03T04:06:39.215Z,76.63
2022-10-03T04:09:14.514Z,76.80
2022-10-03T04:11:59.703Z,77.60
2022-10-03T04:14:44.190Z,77.15
2022-10-03T04:17:35.182Z,76.80
2022-10-03T04:20:04.361Z,77.11
2022-10-03T04:22:36.803Z,76.96
2022-10-03T04:25:06.032Z,77.89
2022-10-03T04:27:55.645Z,77.63
2022-10-03T04:30:30.203Z,77.27
2022-10-03T04:32:57.162Z,77.93
2022-10-03T04:35:29.546Z,77.50
2022-10-03T04:38:14.730Z,77.47
2022-10-03T04:41:02.997Z,77.38
2022-10-03T04:43:45.915Z,77.94
2022-10-03T04:46:27.252Z,78.20
2022-10-03T04:49:04.967Z,77.93
2022-10-03T04:51:43.119Z,78.18
2022-10-03T04:54:09.717Z,77.92
2022-10-03T04:56:51.145Z,78.21
2022-10-03T04:59:35.180Z,77.81
2022-10-03T05:02:03.176Z,78.09
2022-10-03T05:04:29.809Z,78.12
2022-10-03T05:07:06.166Z,77.88
2022-10-03T05:09:51.292Z,78.27
2022-10-03T05:12:36.556Z,78.04
2022-10-03T05:15:14.946Z,77.97
2022-10-03T05:17:46.836Z,77.80
2022-10-03T05:20:20.079Z,77.89
2022-10-03T05:23:02.384Z,77.40
2022-10-03T05:25:31.482Z,77.15
2022-10-03T05:28:03.513Z,77.41
2022-10-03T05:30:35.325Z,77.59
2022-10-03T05:33:19.484Z,76.95
2022-10-03T05:36:18.218Z,76.50
2022-10-03T05:39:03.105Z,77.18
2022-10-03T05:41:32.200Z,76.47
2022-10-03T05:44:01.254Z,76.89
2022-10-03T05:46:33.662Z,77.33
2022-10-03T05:49:23.672Z,76.59
2022-10-03T05:52:08.773Z,76.46
2022-10-03T05:55:01.612Z,77.31
2022-10-03T05:57:40.449Z,76.42
2022-10-03T06:00:18.947Z,77.67
2022-10-03T06:02:54.431Z,77.07
2022-10-03T06:05:39.316Z,77.04
2022-10-03T06:08:26.513Z,77.11
2022-10-03T06:11:01.461Z,77.42
2022-10-03T06:13:30.469Z,77.27
2022-10-03T06:16:02.795Z,77.37
2022-10-03T06:18:43.023Z,78.01
2022-10-03T06:21:15.095Z,78.08
2022-10-03T06:23:58.338Z,77.94
2022-10-03T06:26:42.898Z,77.33
2022-10-03T06:29:47.879Z,78.35
2022-10-03T06:32:33.414Z,78.21
2022-10-03T06:35:25.271Z,77.63
2022-10-03T06:38:04.136Z,77.89
2022-10-03T06:40:48.853Z,77.21
2022-10-03T06:43:34.060Z,77.70
2022-10-03T06:46:24.494Z,77.29
2022-10-03T06:49:09.571Z,77.23
2022-10-03T06:51:52.328Z,77.49
2022-10-03T06:54:24.639Z,77.27
2022-10-03T06:57:03.476Z,77.40
2022-10-03T06:59:41.738Z,78.32
2022-10-03T07:02:31.033Z,77.63
2022-10-03T07:05:09.927Z,78.28
2022-10-03T07:07:56.173Z,77.95
2022-10-03T07:10:31.560Z,77.67
2022-10-03T07:13:16.555Z,77.22
2022-10-03T07:16:26.045Z,77.54
2022-10-03T07:18:53.281Z,77.79
2022-10-03T07:21:25.515Z,78.68
2022-10-03T07:24:14.954Z,77.92
2022-10-03T07:26:57.332Z,77.78
2022-10-03T07:29:37.080Z,76.39
2022-10-03T07:32:06.338Z,75.99
2022-10-03T07:34:45.614Z,76.87
2022-10-03T07:37:38.462Z,75.79
2022-10-03T07:40:15.875Z,75.91
2022-10-03T07:43:01.148Z,76.00
2022-10-03T07:45:37.487Z,75.21
2022-10-03T07:48:18.798Z,75.80
2022-10-03T07:50:51.238Z,74.91
2022-10-03T07:53:44.906Z,75.67
2022-10-03T07:56:26.186Z,74.86
2022-10-03T07:59:01.725Z,75.46
2022-10-03T08:01:43.286Z,74.78
2022-10-03T08:04:15.877Z,74.25
2022-10-03T08:06:50.203Z,74.81
2022-10-03T08:09:19.431Z,75.12
2022-10-03T08:11:53.567Z,74.78
2022-10-03T08:14:32.926Z,74.75
2022-10-03T08:16:59.466Z,75.12
2022-10-03T08:19:41.212Z,75.85
2022-10-03T08:22:25.367Z,75.54
2022-10-03T08:25:07.184Z,75.77
2022-10-03T08:27:44.560Z,75.78
2022-10-03T08:30:38.561Z,74.67
2022-10-03T08:33:25.399Z,75.38
2022-10-03T08:36:10.173Z,74.86
2022-10-03T08:38:52.038Z,75.30
2022-10-03T08:41:33.987Z,74.27
2022-10-03T08:44:18.862Z,74.49
2022-10-03T08:47:01.448Z,74.55
2022-10-03T08:49:46.574Z,73.87
2022-10-03T08:52:32.204Z,73.94
2022-10-03T08:55:14.611Z,73.99
2022-10-03T08:58:04.566Z,75.00
2022-10-03T09:00:46.961Z,75.40
2022-10-03T09:03:36.851Z,74.17
2022-10-03T09:06:09.568Z,75.39
2022-10-03T09:08:57.403Z,75.02
2022-10-03T09:11:34.531Z,74.68
2022-10-03T09:14:19.447Z,74.14
2022-10-03T09:17:04.498Z,73.95
2022-10-03T09:19:49.634Z,74.42
2022-10-03T09:22:32.078Z,73.64
2022-10-03T09:25:07.686Z,72.69
2022-10-03T09:27:52.145Z,71.98
2022-10-03T09:30:44.801Z,72.28
2022-10-03T09:33:13.920Z,72.02
2022-10-03T09:35:43.215Z,73.07
2022-10-03T09:38:22.308Z,71.51
2022-10-03T09:41:07.133Z,72.40
2022-10-03T09:43:33.387Z,71.86
2022-10-03T09:46:19.182Z,71.93
2022-10-03T09:48:45.463Z,71.81
2022-10-03T09:51:11.726Z,71.68
2022-10-03T09:53:58.241Z,72.66
2022-10-03T09:56:44.216Z,72.05
2022-10-03T09:59:16.555Z,72.43
2022-10-03T10:01:45.834Z,71.94
2022-10-03T10:04:53.773Z,72.62
2022-10-03T10:07:39.970Z,71.93
2022-10-03T10:10:24.898Z,72.43
2022-10-03T10:13:10.186Z,71.77
2022-10-03T10:15:48.682Z,72.36
2022-10-03T10:18:21.138Z,73.21
2022-10-03T10:20:50.384Z,71.80
2022-10-03T10:23:39.097Z,72.97
2022-10-03T10:26:27.453Z,71.56
2022-10-03T10:28:55.577Z,72.84
2022-10-03T10:31:40.493Z,72.31
2022-10-03T10:34:16.061Z,72.35
2022-10-03T10:37:10.203Z,72.72
2022-10-03T10:39:45.921Z,73.21
2022-10-03T10:42:18.403Z,74.13
2022-10-03T10:44:51.404Z,73.58
2022-10-03T10:47:36.208Z,75.07
2022-10-03T10:50:08.600Z,73.73
2022-10-03T10:52:50.441Z,74.41
2022-10-03T10:55:35.171Z,73.67
2022-10-03T10:58:30.652Z,74.22
2022-10-03T11:01:12.095Z,75.12
2022-10-03T11:03:57.187Z,75.76
2022-10-03T11:06:23.999Z,74.47
2022-10-03T11:09:13.374Z,75.73
2022-10-03T11:11:58.209Z,74.93
2022-10-03T11:14:36.763Z,74.22
2022-10-03T11:17:19.875Z,76.25
2022-10-03T11:19:58.073Z,74.83
2022-10-03T11:23:04.826Z,75.85
2022-10-03T11:25:50.210Z,75.91
2022-10-03T11:28:45.119Z,74.40
2022-10-03T11:31:23.834Z,74.13
2022-10-03T11:34:08.437Z,74.60
2022-10-03T11:37:00.692Z,74.20
2022-10-03T11:39:42.105Z,73.74
2022-10-03T11:42:28.372Z,73.07
2022-10-03T11:44:59.224Z,73.76
2022-10-03T11:47:25.441Z,72.88
2022-10-03T11:49:57.910Z,73.10
2022-10-03T11:52:27.898Z,72.85
2022-10-03T11:55:26.147Z,74.01
2022-10-03T11:58:11.138Z,73.85
2022-10-03T12:00:40.022Z,73.20
2022-10-03T12:03:06.318Z,74.01
2022-10-03T12:05:32.569Z,73.77
2022-10-03T12:08:17.659Z,75.06
2022-10-03T12:10:58.942Z,73.54
2022-10-03T12:13:36.908Z,74.84
2022-10-03T12:16:06.133Z,73.80
2022-10-03T12:18:44.612Z,73.86
2022-10-03T12:21:12.954Z,73.76
2022-10-03T12:24:02.574Z,73.62
2022-10-03T12:26:37.550Z,71.45
2022-10-03T12:29:08.707Z,70.94
2022-10-03T12:31:40.180Z,72.03
2022-10-03T12:34:25.600Z,70.79
2022-10-03T12:37:11.690Z,70.67
2022-10-03T12:40:04.117Z,70.51
2022-10-03T12:42:45.131Z,71.38
2022-10-03T12:45:17.238Z,71.52
2022-10-03T12:47:56.918Z,71.66
2022-10-03T12:50:39.458Z,71.07
2022-10-03T12:53:23.671Z,71.45
2022-10-03T12:56:22.439Z,69.75
2022-10-03T12:58:55.612Z,70.90
2022-10-03T13:01:30.700Z,71.52
2022-10-03T13:04:02.772Z,72.03
2022-10-03T13:07:02.221Z,70.90
2022-10-03T13:09:43.452Z,71.32
2022-10-03T13:12:25.431Z,71.98
2022-10-03T13:15:06.572Z,71.76
2022-10-03T13:17:40.416Z,71.57
2022-10-03T13:20:06.755Z,71.15
2022-10-03T13:22:33.123Z,71.85
2022-10-03T13:25:07.735Z,71.49
2022-10-03T13:27:52.565Z,71.60
2022-10-03T13:30:29.017Z,69.13
2022-10-03T13:33:06.572Z,70.68
2022-10-03T13:35:58.380Z,69.86
2022-10-03T13:38:45.763Z,69.82
2022-10-03T13:41:19.439Z,68.35
2022-10-03T13:43:49.804Z,67.40
2022-10-03T13:46:19.922Z,67.20
2022-10-03T13:48:55.043Z,66.32
2022-10-03T13:51:27.770Z,66.59
2022-10-03T13:54:01.326Z,67.69
2022-10-03T13:56:47.859Z,66.47
2022-10-03T13:59:25.009Z,66.48
2022-10-03T14:01:58.214Z,66.54
2022-10-03T14:04:33.670Z,67.97
2022-10-03T14:07:08.803Z,67.94
2022-10-03T14:09:35.054Z,66.83
2022-10-03T14:12:07.434Z,66.66
2022-10-03T14:14:54.195Z,67.33
2022-10-03T14:17:32.936Z,66.29
2022-10-03T14:20:15.167Z,66.39
2022-10-03T14:23:00.734Z,66.20
2022-10-03T14:25:27.023Z,66.09
2022-10-03T14:27:54.915Z,66.42
2022-10-03T14:30:21.606Z,66.54
2022-10-03T14:32:48.523Z,66.42
2022-10-03T14:35:37.813Z,65.60
2022-10-03T14:38:09.348Z,66.19
2022-10-03T14:40:42.241Z,67.25
2022-10-03T14:43:32.986Z,67.23
2022-10-03T14:46:00.833Z,66.59
2022-10-03T14:48:27.773Z,68.18
2022-10-03T14:50:57.529Z,67.76
2022-10-03T14:53:29.642Z,68.12
2022-10-03T14:56:00.986Z,66.89
2022-10-03T14:58:35.338Z,67.83
2022-10-03T15:01:13.015Z,67.60
2022-10-03T15:03:42.511Z,66.99
2022-10-03T15:06:19.112Z,66.47
2022-10-03T15:08:55.946Z,67.46
2022-10-03T15:11:26.879Z,67.87
2022-10-03T15:14:04.892Z,67.43
2022-10-03T15:16:34.489Z,67.33
2022-10-03T15:19:07.272Z,67.69
2022-10-03T15:21:35.183Z,66.85
2022-10-03T15:24:03.787Z,67.72
2022-10-03T15:26:32.940Z,67.00
2022-10-03T15:29:00.949Z,67.21
2022-10-03T15:31:37.601Z,67.24
2022-10-03T15:34:14.397Z,67.10
2022-10-03T15:36:42.167Z,67.33
2022-10-03T15:39:17.259Z,67.77
2022-10-03T15:41:55.689Z,68.09
2022-10-03T15:44:33.576Z,68.48
2022-10-03T15:47:05.005Z,68.03
2022-10-03T15:49:37.256Z,69.56
2022-10-03T15:52:15.688Z,69.05
2022-10-03T15:54:45.730Z,68.27
2022-10-03T15:57:17.499Z,70.00
2022-10-03T15:59:47.007Z,70.18
2022-10-03T16:02:19.055Z,70.58
2022-10-03T16:04:48.814Z,71.51
2022-10-03T16:07:36.855Z,71.64
2022-10-03T16:10:32.797Z,72.11
2022-10-03T16:13:01.927Z,72.95
2022-10-03T16:15:34.120Z,72.72
2022-10-03T16:18:02.348Z,72.07
2022-10-03T16:20:34.750Z,72.03
2022-10-03T16:23:19.238Z,73.71
2022-10-03T16:25:49.020Z,74.31
2022-10-03T16:28:20.712Z,72.58
2022-10-03T16:30:56.172Z,72.79
2022-10-03T16:33:42.718Z,73.09
2022-10-03T16:36:10.174Z,74.81
2022-10-03T16:38:37.761Z,74.07
2022-10-03T16:41:24.503Z,73.69
2022-10-03T16:44:13.949Z,74.39
2022-10-03T16:46:43.091Z,75.35
2022-10-03T16:49:29.333Z,75.84
2022-10-03T16:52:06.155Z,76.25
2022-10-03T16:54:33.341Z,75.59
2022-10-03T16:57:00.728Z,77.42
2022-10-03T16:59:28.782Z,77.58
2022-10-03T17:01:55.428Z,77.10
2022-10-03T17:04:26.531Z,77.75
2022-10-03T17:06:55.484Z,78.13
2022-10-03T17:09:24.536Z,77.71
2022-10-03T17:11:53.519Z,77.88
2022-10-03T17:14:20.744Z,79.09
2022-10-03T17:16:57.037Z,78.97
2022-10-03T17:19:55.735Z,79.60
2022-10-03T17:22:27.995Z,78.58
2022-10-03T17:25:16.207Z,78.31
2022-10-03T17:27:47.480Z,78.14
2022-10-03T17:30:14.303Z,78.67
2022-10-03T17:32:44.959Z,80.20
2022-10-03T17:35:15.425Z,79.84
2022-10-03T17:37:55.774Z,79.20
2022-10-03T17:40:29.041Z,79.02
2022-10-03T17:42:57.480Z,80.73
2022-10-03T17:45:42.857Z,79.25
2022-10-03T17:48:20.498Z,81.00
2022-10-03T17:50:49.517Z,79.85
2022-10-03T17:53:20.122Z,81.58
2022-10-03T17:55:47.952Z,81.18
2022-10-03T17:58:17.102Z,81.93
2022-10-03T18:00:46.580Z,81.85
2022-10-03T18:03:31.786Z,83.09
2022-10-03T18:06:00.397Z,82.11
2022-10-03T18:08:28.660Z,82.27
2022-10-03T18:10:56.488Z,81.03
2022-10-03T18:13:30.406Z,82.21
2022-10-03T18:16:15.249Z,83.00
2022-10-03T18:19:00.490Z,83.12
2022-10-03T18:21:27.018Z,82.42
2022-10-03T18:24:12.131Z,83.48
2022-10-03T18:26:43.758Z,82.73
2022-10-03T18:29:13.407Z,83.55
2022-10-03T18:31:45.498Z,83.54
2022-10-03T18:34:20.215Z,82.89
2022-10-03T18:36:51.139Z,83.26
2022-10-03T18:39:19.043Z,84.13
2022-10-03T18:41:49.530Z,83.89
2022-10-03T18:44:20.439Z,83.61
2022-10-03T18:46:50.890Z,83.53
2022-10-03T18:49:33.507Z,83.80
2022-10-03T18:52:03.714Z,84.04
2022-10-03T18:54:59.351Z,84.34
2022-10-03T18:57:25.698Z,83.98
2022-10-03T18:59:56.228Z,83.97
2022-10-03T19:02:26.737Z,84.14
2022-10-03T19:04:56.732Z,84.78
2022-10-03T19:07:24.913Z,83.22
2022-10-03T19:10:11.767Z,83.62
2022-10-03T19:12:42.162Z,83.55
2022-10-03T19:15:14.572Z,83.83
2022-10-03T19:17:56.175Z,83.34
2022-10-03T19:20:27.670Z,83.15
2022-10-03T19:23:14.057Z,83.24
2022-10-03T19:25:42.783Z,82.90
2022-10-03T19:28:29.504Z,82.79
2022-10-03T19:31:11.307Z,81.32
2022-10-03T19:33:42.444Z,82.36
2022-10-03T19:36:12.593Z,81.73
2022-10-03T19:38:42.364Z,81.35
2022-10-03T19:41:14.639Z,82.12
2022-10-03T19:43:43.155Z,82.36
2022-10-03T19:46:15.430Z,81.18
2022-10-03T19:48:54.310Z,82.67
2022-10-03T19:51:25.695Z,82.08
2022-10-03T19:53:52.851Z,81.46
2022-10-03T19:56:19.878Z,82.62
2022-10-03T19:58:47.700Z,82.91
2022-10-03T20:01:14.224Z,82.67
2022-10-03T20:03:47.935Z,82.40
2022-10-03T20:06:17.534Z,82.91
2022-10-03T20:08:46.948Z,81.53
2022-10-03T20:11:31.775Z,82.88
2022-10-03T20:14:00.558Z,83.03
2022-10-03T20:16:30.164Z,81.72
2022-10-03T20:19:09.257Z,82.51
2022-10-03T20:21:36.215Z,83.14
2022-10-03T20:24:07.886Z,83.26
2022-10-03T20:26:54.549Z,83.55
2022-10-03T20:29:31.306Z,82.41
2022-10-03T20:31:58.999Z,83.54
2022-10-03T20:34:26.202Z,83.26
2022-10-03T20:36:57.787Z,83.06
2022-10-03T20:39:33.766Z,83.64
2022-10-03T20:42:25.923Z,83.01
2022-10-03T20:45:02.747Z,84.12
2022-10-03T20:47:31.890Z,83.35
2022-10-03T20:50:01.795Z,83.54
2022-10-03T20:52:28.221Z,83.07
2022-10-03T20:55:03.052Z,83.28
2022-10-03T20:57:58.913Z,83.74
2022-10-03T21:00:25.670Z,83.93
2022-10-03T21:03:07.509Z,83.65
2022-10-03T21:05:36.520Z,83.32
2022-10-03T21:08:04.570Z,83.69
2022-10-03T21:10:33.683Z,83.48
2022-10-03T21:13:01.478Z,82.21
2022-10-03T21:15:29.860Z,81.43
2022-10-03T21:17:57.091Z,81.85
2022-10-03T21:20:27.218Z,81.98
2022-10-03T21:22:55.347Z,81.16
2022-10-03T21:25:29.769Z,81.91
2022-10-03T21:27:57.323Z,81.04
2022-10-03T21:30:46.708Z,80.64
2022-10-03T21:33:19.036Z,80.63
2022-10-03T21:35:46.900Z,80.39
2022-10-03T21:38:31.252Z,81.16
2022-10-03T21:41:00.288Z,81.49
2022-10-03T21:43:35.658Z,81.06
2022-10-03T21:46:02.062Z,80.71
2022-10-03T21:48:37.225Z,80.95
2022-10-03T21:51:23.299Z,82.28
2022-10-03T21:54:12.669Z,82.50
2022-10-03T21:56:44.796Z,81.57
2022-10-03T21:59:16.861Z,81.98
2022-10-03T22:01:43.404Z,83.39
2022-10-03T22:04:33.197Z,82.26
2022-10-03T22:07:05.750Z,81.91
2022-10-03T22:09:32.245Z,83.50
2022-10-03T22:12:00.286Z,83.13
2022-10-03T22:14:44.982Z,82.00
2022-10-03T22:17:49.843Z,82.02
2022-10-03T22:20:26.356Z,83.09
2022-10-03T22:23:08.862Z,81.80
2022-10-03T22:25:39.026Z,81.53
2022-10-03T22:28:11.488Z,82.75
2022-10-03T22:30:40.870Z,81.21
2022-10-03T22:33:07.791Z,81.70
2022-10-03T22:35:46.132Z,82.42
2022-10-03T22:38:12.804Z,82.66
2022-10-03T22:40:39.984Z,81.68
2022-10-03T22:43:08.336Z,81.93
2022-10-03T22:45:38.189Z,83.02
2022-10-03T22:48:06.856Z,83.07
2022-10-03T22:50:35.809Z,82.43
2022-10-03T22:53:02.615Z,82.02
2022-10-03T22:55:29.809Z,81.76
2022-10-03T22:57:56.922Z,82.59
2022-10-03T23:00:25.040Z,82.70
2022-10-03T23:02:57.920Z,81.86
2022-10-03T23:05:42.990Z,81.90
2022-10-03T23:08:25.760Z,81.44
2022-10-03T23:10:55.241Z,80.84
2022-10-03T23:13:21.463Z,79.75
2022-10-03T23:15:50.819Z,80.92
2022-10-03T23:18:32.353Z,80.41
2022-10-03T23:21:01.700Z,80.72
2022-10-03T23:23:31.013Z,80.83
2022-10-03T23:26:16.101Z,80.53
2022-10-03T23:28:57.296Z,80.36
2022-10-03T23:31:42.440Z,80.29
2022-10-03T23:34:09.882Z,79.90
2022-10-03T23:36:56.106Z,79.60
2022-10-03T23:39:45.987Z,79.54
2022-10-03T23:42:18.260Z,80.40
2022-10-03T23:47:32.636Z,79.43
2022-10-03T23:49:59.896Z,79.95
2022-10-03T23:52:28.337Z,79.31
2022-10-03T23:54:56.150Z,79.21
2022-10-03T23:57:26.513Z,79.11
2022-10-03T23:59:52.761Z,80.21
